createdAt,value
2022-10-01T00:00:38.217Z,98201.00
2022-10-01T00:03:10.800Z,98203.00
2022-10-01T00:05:40.775Z,98208.00
2022-10-01T00:08:10.672Z,98207.00
2022-10-01T00:10:44.225Z,98210.00
2022-10-01T00:13:14.368Z,98210.00
2022-10-01T00:15:44.504Z,98207.00
2022-10-01T00:18:17.224Z,98204.00
2022-10-01T00:20:47.264Z,98212.00
2022-10-01T00:23:19.385Z,98210.00
2022-10-01T00:25:50.362Z,98200.00
2022-10-01T00:28:20.274Z,98199.00
2022-10-01T00:30:50.685Z,98206.00
2022-10-01T00:33:23.173Z,98200.00
2022-10-01T00:35:53.055Z,98194.00
2022-10-01T00:38:22.946Z,98183.00
2022-10-01T00:40:53.613Z,98179.00
2022-10-01T00:43:24.471Z,98183.00
2022-10-01T00:45:55.099Z,98173.00
2022-10-01T00:48:28.794Z,98175.00
2022-10-01T00:50:58.942Z,98172.00
2022-10-01T00:53:29.363Z,98181.00
2022-10-01T00:56:00.493Z,98190.00
2022-10-01T00:58:30.510Z,98176.00
2022-10-01T01:01:00.630Z,98174.00
2022-10-01T01:03:33.255Z,98177.00
2022-10-01T01:06:03.509Z,98188.00
2022-10-01T01:08:33.484Z,98181.00
2022-10-01T01:11:09.336Z,98178.00
2022-10-01T01:13:45.375Z,98183.00
2022-10-01T01:16:18.960Z,98185.00
2022-10-01T01:18:55.022Z,98175.00
2022-10-01T01:21:28.721Z,98187.00
2022-10-01T01:24:32.699Z,98175.00
2022-10-01T01:27:11.040Z,98187.00
2022-10-01T01:29:47.845Z,98185.00
2022-10-01T01:32:20.850Z,98179.00
2022-10-01T01:34:52.063Z,98188.00
2022-10-01T01:37:26.965Z,98181.00
2022-10-01T01:39:58.671Z,98185.00
2022-10-01T01:42:38.282Z,98183.00
2022-10-01T01:45:13.798Z,98188.00
2022-10-01T01:47:46.831Z,98189.00
2022-10-01T01:50:18.980Z,98197.00
2022-10-01T01:52:49.101Z,98198.00
2022-10-01T01:55:19.273Z,98194.00
2022-10-01T01:57:49.165Z,98191.00
2022-10-01T02:00:22.621Z,98193.00
2022-10-01T02:02:54.615Z,98189.00
2022-10-01T02:05:26.007Z,98193.00
2022-10-01T02:08:23.393Z,98191.00
2022-10-01T02:11:15.596Z,98202.00
2022-10-01T02:13:51.155Z,98186.00
2022-10-01T02:16:27.759Z,98192.00
2022-10-01T02:19:03.309Z,98185.00
2022-10-01T02:21:37.362Z,98178.00
2022-10-01T02:24:13.545Z,98176.00
2022-10-01T02:26:44.814Z,98179.00
2022-10-01T02:29:18.005Z,98166.00
2022-10-01T02:31:53.589Z,98170.00
2022-10-01T02:34:26.912Z,98163.00
2022-10-01T02:36:58.707Z,98155.00
2022-10-01T02:39:30.179Z,98154.00
2022-10-01T02:42:02.565Z,98146.00
2022-10-01T02:44:38.175Z,98152.00
2022-10-01T02:47:15.104Z,98139.00
2022-10-01T02:49:45.027Z,98140.00
2022-10-01T02:52:19.947Z,98128.00
2022-10-01T02:54:53.623Z,98125.00
2022-10-01T02:57:24.209Z,98126.00
2022-10-01T02:59:54.644Z,98131.00
2022-10-01T03:02:28.039Z,98131.00
2022-10-01T03:04:58.546Z,98121.00
2022-10-01T03:07:30.146Z,98120.00
2022-10-01T03:10:00.130Z,98119.00
2022-10-01T03:12:30.306Z,98104.00
2022-10-01T03:15:00.270Z,98106.00
2022-10-01T03:17:32.822Z,98111.00
2022-10-01T03:20:02.768Z,98118.00
2022-10-01T03:22:33.241Z,98119.00
2022-10-01T03:25:03.475Z,98118.00
2022-10-01T03:27:33.469Z,98123.00
2022-10-01T03:30:03.379Z,98118.00
2022-10-01T03:32:35.899Z,98130.00
2022-10-01T03:35:06.028Z,98132.00
2022-10-01T03:37:35.869Z,98127.00
2022-10-01T03:40:05.884Z,98125.00
2022-10-01T03:42:35.789Z,98132.00
2022-10-01T03:45:05.662Z,98128.00
2022-10-01T03:47:39.553Z,98118.00
2022-10-01T03:50:10.942Z,98127.00
2022-10-01T03:52:42.843Z,98128.00
2022-10-01T03:55:12.836Z,98124.00
2022-10-01T03:57:42.659Z,98112.00
2022-10-01T04:00:14.211Z,98111.00
2022-10-01T04:02:46.764Z,98115.00
2022-10-01T04:05:17.227Z,98119.00
2022-10-01T04:07:47.338Z,98129.00
2022-10-01T04:10:17.321Z,98114.00
2022-10-01T04:12:47.229Z,98112.00
2022-10-01T04:15:17.170Z,98106.00
2022-10-01T04:17:49.637Z,98104.00
2022-10-01T04:20:19.848Z,98103.00
2022-10-01T04:22:49.780Z,98108.00
2022-10-01T04:25:19.903Z,98104.00
2022-10-01T04:27:59.054Z,98107.00
2022-10-01T04:30:29.792Z,98107.00
2022-10-01T04:33:02.366Z,98094.00
2022-10-01T04:35:32.617Z,98089.00
2022-10-01T04:38:03.612Z,98098.00
2022-10-01T04:40:34.302Z,98088.00
2022-10-01T04:43:04.418Z,98096.00
2022-10-01T04:45:34.565Z,98087.00
2022-10-01T04:48:07.949Z,98087.00
2022-10-01T04:50:37.821Z,98087.00
2022-10-01T04:53:07.665Z,98087.00
2022-10-01T04:55:38.015Z,98094.00
2022-10-01T04:58:07.923Z,98087.00
2022-10-01T05:00:37.801Z,98087.00
2022-10-01T05:03:10.971Z,98089.00
2022-10-01T05:05:41.022Z,98091.00
2022-10-01T05:08:10.889Z,98080.00
2022-10-01T05:10:40.809Z,98088.00
2022-10-01T05:13:11.200Z,98104.00
2022-10-01T05:15:41.495Z,98096.00
2022-10-01T05:18:13.962Z,98093.00
2022-10-01T05:20:43.988Z,98107.00
2022-10-01T05:23:13.847Z,98096.00
2022-10-01T05:25:47.037Z,98090.00
2022-10-01T05:28:21.420Z,98095.00
2022-10-01T05:30:52.263Z,98085.00
2022-10-01T05:33:24.683Z,98091.00
2022-10-01T05:35:54.685Z,98083.00
2022-10-01T05:38:25.017Z,98077.00
2022-10-01T05:40:55.291Z,98090.00
2022-10-01T05:43:25.645Z,98091.00
2022-10-01T05:45:55.606Z,98084.00
2022-10-01T05:48:28.131Z,98091.00
2022-10-01T05:50:58.082Z,98081.00
2022-10-01T05:53:28.134Z,98091.00
2022-10-01T05:55:58.014Z,98090.00
2022-10-01T05:58:27.850Z,98086.00
2022-10-01T06:00:58.716Z,98074.00
2022-10-01T06:03:31.176Z,98079.00
2022-10-01T06:06:01.057Z,98087.00
2022-10-01T06:08:30.874Z,98084.00
2022-10-01T06:11:04.319Z,98088.00
2022-10-01T06:13:34.206Z,98088.00
2022-10-01T06:16:04.708Z,98095.00
2022-10-01T06:18:39.650Z,98084.00
2022-10-01T06:21:09.595Z,98082.00
2022-10-01T06:23:39.513Z,98072.00
2022-10-01T06:26:09.803Z,98065.00
2022-10-01T06:28:39.642Z,98064.00
2022-10-01T06:31:09.562Z,98068.00
2022-10-01T06:33:42.029Z,98065.00
2022-10-01T06:36:11.896Z,98057.00
2022-10-01T06:38:43.113Z,98070.00
2022-10-01T06:41:12.959Z,98065.00
2022-10-01T06:43:42.779Z,98060.00
2022-10-01T06:46:12.726Z,98065.00
2022-10-01T06:48:45.184Z,98064.00
2022-10-01T06:51:15.053Z,98063.00
2022-10-01T06:53:42.292Z,98057.00
2022-10-01T06:56:12.379Z,98065.00
2022-10-01T06:58:42.675Z,98066.00
2022-10-01T07:01:12.826Z,98065.00
2022-10-01T07:03:45.611Z,98066.00
2022-10-01T07:06:15.454Z,98068.00
2022-10-01T07:08:45.278Z,98066.00
2022-10-01T07:11:15.147Z,98054.00
2022-10-01T07:13:45.151Z,98073.00
2022-10-01T07:16:15.652Z,98071.00
2022-10-01T07:18:48.177Z,98069.00
2022-10-01T07:21:18.091Z,98062.00
2022-10-01T07:23:47.927Z,98066.00
2022-10-01T07:26:17.965Z,98054.00
2022-10-01T07:28:47.884Z,98062.00
2022-10-01T07:31:17.787Z,98058.00
2022-10-01T07:33:50.284Z,98055.00
2022-10-01T07:36:20.223Z,98049.00
2022-10-01T07:38:51.643Z,98053.00
2022-10-01T07:41:21.732Z,98051.00
2022-10-01T07:43:51.607Z,98049.00
2022-10-01T07:46:21.536Z,98048.00
2022-10-01T07:48:54.678Z,98043.00
2022-10-01T07:51:26.761Z,98043.00
2022-10-01T07:53:56.701Z,98040.00
2022-10-01T07:56:27.514Z,98043.00
2022-10-01T07:58:58.010Z,98043.00
2022-10-01T08:01:28.434Z,98037.00
2022-10-01T08:04:00.952Z,98053.00
2022-10-01T08:06:30.829Z,98048.00
2022-10-01T08:09:00.645Z,98050.00
2022-10-01T08:11:31.443Z,98042.00
2022-10-01T08:14:02.147Z,98049.00
2022-10-01T08:16:33.632Z,98040.00
2022-10-01T08:19:07.207Z,98052.00
2022-10-01T08:21:37.591Z,98039.00
2022-10-01T08:24:08.071Z,98039.00
2022-10-01T08:26:37.964Z,98036.00
2022-10-01T08:29:07.890Z,98034.00
2022-10-01T08:31:38.320Z,98040.00
2022-10-01T08:34:11.008Z,98036.00
2022-10-01T08:36:41.342Z,98031.00
2022-10-01T08:39:11.261Z,98041.00
2022-10-01T08:41:49.696Z,98024.00
2022-10-01T08:44:22.856Z,98024.00
2022-10-01T08:46:53.478Z,98025.00
2022-10-01T08:49:30.175Z,98014.00
2022-10-01T08:52:04.746Z,98012.00
2022-10-01T08:54:39.479Z,98010.00
2022-10-01T08:57:14.607Z,98004.00
2022-10-01T08:59:47.359Z,98004.00
2022-10-01T09:02:26.086Z,97999.00
2022-10-01T09:05:02.383Z,97986.00
2022-10-01T09:07:41.315Z,97991.00
2022-10-01T09:10:28.389Z,97977.00
2022-10-01T09:13:13.503Z,97976.00
2022-10-01T09:15:47.680Z,97967.00
2022-10-01T09:18:22.615Z,97975.00
2022-10-01T09:20:59.523Z,97964.00
2022-10-01T09:23:32.118Z,97961.00
2022-10-01T09:26:02.554Z,97955.00
2022-10-01T09:28:34.246Z,97949.00
2022-10-01T09:31:13.888Z,97953.00
2022-10-01T09:33:45.479Z,97958.00
2022-10-01T09:36:23.189Z,97949.00
2022-10-01T09:38:59.787Z,97957.00
2022-10-01T09:41:31.461Z,97950.00
2022-10-01T09:44:01.960Z,97946.00
2022-10-01T09:46:31.915Z,97953.00
2022-10-01T09:49:05.119Z,97942.00
2022-10-01T09:51:42.027Z,97940.00
2022-10-01T09:54:18.379Z,97948.00
2022-10-01T09:56:51.652Z,97947.00
2022-10-01T09:59:25.593Z,97941.00
2022-10-01T10:01:59.054Z,97937.00
2022-10-01T10:04:33.194Z,97935.00
2022-10-01T10:07:07.588Z,97936.00
2022-10-01T10:09:39.020Z,97922.00
2022-10-01T10:12:11.246Z,97935.00
2022-10-01T10:14:42.345Z,97928.00
2022-10-01T10:17:16.820Z,97929.00
2022-10-01T10:19:51.873Z,97911.00
2022-10-01T10:22:27.085Z,97909.00
2022-10-01T10:24:59.044Z,97909.00
2022-10-01T10:27:30.661Z,97916.00
2022-10-01T10:30:13.385Z,97907.00
2022-10-01T10:32:43.775Z,97900.00
2022-10-01T10:35:16.284Z,97902.00
2022-10-01T10:37:53.729Z,97907.00
2022-10-01T10:40:29.473Z,97893.00
2022-10-01T10:43:00.894Z,97902.00
2022-10-01T10:45:35.750Z,97896.00
2022-10-01T10:48:09.072Z,97902.00
2022-10-01T10:50:41.120Z,97893.00
2022-10-01T10:53:27.715Z,97894.00
2022-10-01T10:56:01.275Z,97880.00
2022-10-01T10:58:32.996Z,97884.00
2022-10-01T11:01:04.803Z,97881.00
2022-10-01T11:03:35.686Z,97874.00
2022-10-01T11:06:12.889Z,97876.00
2022-10-01T11:08:46.007Z,97865.00
2022-10-01T11:11:34.015Z,97867.00
2022-10-01T11:14:13.598Z,97869.00
2022-10-01T11:16:55.754Z,97868.00
2022-10-01T11:19:39.951Z,97870.00
2022-10-01T11:22:22.669Z,97855.00
2022-10-01T11:25:07.152Z,97851.00
2022-10-01T11:27:43.251Z,97851.00
2022-10-01T11:30:17.244Z,97844.00
2022-10-01T11:32:50.026Z,97846.00
2022-10-01T11:35:37.441Z,97848.00
2022-10-01T11:38:35.330Z,97838.00
2022-10-01T11:41:19.201Z,97844.00
2022-10-01T11:43:52.902Z,97845.00
2022-10-01T11:46:30.429Z,97844.00
2022-10-01T11:49:05.461Z,97839.00
2022-10-01T11:51:40.259Z,97837.00
2022-10-01T11:54:12.999Z,97835.00
2022-10-01T11:57:01.037Z,97840.00
2022-10-01T11:59:36.741Z,97836.00
2022-10-01T12:02:15.575Z,97833.00
2022-10-01T12:04:49.804Z,97836.00
2022-10-01T12:07:23.456Z,97835.00
2022-10-01T12:10:02.498Z,97837.00
2022-10-01T12:12:39.019Z,97831.00
2022-10-01T12:15:13.740Z,97813.00
2022-10-01T12:17:48.492Z,97825.00
2022-10-01T12:20:26.031Z,97821.00
2022-10-01T12:22:57.164Z,97817.00
2022-10-01T12:25:36.007Z,97809.00
2022-10-01T12:28:13.550Z,97802.00
2022-10-01T12:30:49.552Z,97800.00
2022-10-01T12:33:47.912Z,97793.00
2022-10-01T12:36:23.876Z,97803.00
2022-10-01T12:39:06.064Z,97794.00
2022-10-01T12:41:46.063Z,97786.00
2022-10-01T12:44:32.581Z,97779.00
2022-10-01T12:47:14.387Z,97773.00
2022-10-01T12:50:14.124Z,97775.00
2022-10-01T12:52:50.299Z,97774.00
2022-10-01T12:55:32.268Z,97776.00
2022-10-01T12:58:24.177Z,97772.00
2022-10-01T13:01:03.570Z,97759.00
2022-10-01T13:04:03.056Z,97773.00
2022-10-01T13:06:40.267Z,97757.00
2022-10-01T13:09:18.889Z,97770.00
2022-10-01T13:12:13.310Z,97751.00
2022-10-01T13:14:45.960Z,97756.00
2022-10-01T13:17:23.236Z,97755.00
2022-10-01T13:20:09.382Z,97769.00
2022-10-01T13:22:44.598Z,97761.00
2022-10-01T13:25:31.099Z,97770.00
2022-10-01T13:28:06.358Z,97752.00
2022-10-01T13:30:44.422Z,97765.00
2022-10-01T13:33:27.290Z,97771.00
2022-10-01T13:35:59.519Z,97757.00
2022-10-01T13:38:32.081Z,97771.00
2022-10-01T13:41:04.740Z,97765.00
2022-10-01T13:43:35.820Z,97757.00
2022-10-01T13:46:10.539Z,97752.00
2022-10-01T13:48:49.329Z,97751.00
2022-10-01T13:51:20.488Z,97750.00
2022-10-01T13:53:53.343Z,97748.00
2022-10-01T13:56:34.763Z,97742.00
2022-10-01T13:59:04.928Z,97736.00
2022-10-01T14:01:57.935Z,97736.00
2022-10-01T14:04:37.694Z,97736.00
2022-10-01T14:07:36.460Z,97729.00
2022-10-01T14:10:26.286Z,97726.00
2022-10-01T14:13:10.022Z,97718.00
2022-10-01T14:15:58.111Z,97718.00
2022-10-01T14:18:31.697Z,97713.00
2022-10-01T14:21:12.795Z,97711.00
2022-10-01T14:23:52.656Z,97718.00
2022-10-01T14:26:27.016Z,97711.00
2022-10-01T14:29:10.156Z,97712.00
2022-10-01T14:31:50.936Z,97710.00
2022-10-01T14:34:38.708Z,97721.00
2022-10-01T14:37:17.352Z,97710.00
2022-10-01T14:39:47.861Z,97717.00
2022-10-01T14:42:19.918Z,97729.00
2022-10-01T14:44:50.607Z,97743.00
2022-10-01T14:50:48.235Z,97789.00
2022-10-01T14:53:23.807Z,97799.00
2022-10-01T14:55:58.006Z,97793.00
2022-10-01T14:58:31.768Z,97786.00
2022-10-01T15:01:02.522Z,97787.00
2022-10-01T15:03:39.195Z,97788.00
2022-10-01T15:06:15.413Z,97790.00
2022-10-01T15:08:49.699Z,97791.00
2022-10-01T15:11:22.994Z,97789.00
2022-10-01T15:13:54.506Z,97796.00
2022-10-01T15:16:26.907Z,97792.00
2022-10-01T15:18:58.717Z,97798.00
2022-10-01T15:21:33.315Z,97788.00
2022-10-01T15:24:07.055Z,97797.00
2022-10-01T15:26:37.604Z,97800.00
2022-10-01T15:29:09.603Z,97789.00
2022-10-01T15:31:43.130Z,97792.00
2022-10-01T15:34:15.270Z,97800.00
2022-10-01T15:36:45.710Z,97796.00
2022-10-01T15:39:30.699Z,97800.00
2022-10-01T15:42:07.402Z,97809.00
2022-10-01T15:44:48.880Z,97804.00
2022-10-01T15:47:29.420Z,97806.00
2022-10-01T15:50:28.828Z,97810.00
2022-10-01T15:53:14.094Z,97807.00
2022-10-01T15:56:17.439Z,97804.00
2022-10-01T15:59:02.395Z,97795.00
2022-10-01T16:01:41.642Z,97788.00
2022-10-01T16:04:23.663Z,97783.00
2022-10-01T16:07:12.072Z,97774.00
2022-10-01T16:09:56.354Z,97773.00
2022-10-01T16:15:47.487Z,97769.00
2022-10-01T16:21:46.216Z,97759.00
2022-10-01T16:24:41.927Z,97750.00
2022-10-01T16:27:39.707Z,97753.00
2022-10-01T16:30:36.740Z,97755.00
2022-10-01T16:33:23.425Z,97750.00
2022-10-01T16:36:25.218Z,97752.00
2022-10-01T16:38:57.030Z,97751.00
2022-10-01T16:41:56.590Z,97749.00
2022-10-01T16:45:09.327Z,97760.00
2022-10-01T16:48:12.606Z,97751.00
2022-10-01T16:51:03.390Z,97742.00
2022-10-01T16:53:43.650Z,97726.00
2022-10-01T16:59:54.481Z,97700.00
2022-10-01T17:02:46.587Z,97698.00
2022-10-01T17:05:37.721Z,97692.00
2022-10-01T17:08:27.919Z,97665.00
2022-10-01T17:11:16.465Z,97644.00
2022-10-01T17:13:52.905Z,97652.00
2022-10-01T17:16:42.176Z,97626.00
2022-10-01T17:19:16.418Z,97597.00
2022-10-01T17:22:09.133Z,97661.00
2022-10-01T17:24:57.637Z,97674.00
2022-10-01T17:27:39.292Z,97689.00
2022-10-01T17:30:12.366Z,97681.00
2022-10-01T17:32:43.155Z,97677.00
2022-10-01T17:35:13.753Z,97680.00
2022-10-01T17:37:46.322Z,97682.00
2022-10-01T17:40:16.301Z,97689.00
2022-10-01T17:42:46.201Z,97690.00
2022-10-01T17:45:17.038Z,97703.00
2022-10-01T17:47:47.736Z,97708.00
2022-10-01T17:50:18.057Z,97713.00
2022-10-01T17:53:42.846Z,97728.00
2022-10-01T17:56:42.492Z,97727.00
2022-10-01T18:02:53.274Z,97751.00
2022-10-01T18:06:03.384Z,97752.00
2022-10-01T18:08:55.662Z,97762.00
2022-10-01T18:11:27.566Z,97771.00
2022-10-01T18:14:03.259Z,97757.00
2022-10-01T18:17:20.171Z,97756.00
2022-10-01T18:20:17.723Z,97757.00
2022-10-01T18:23:04.338Z,97753.00
2022-10-01T18:25:58.832Z,97751.00
2022-10-01T18:28:38.143Z,97753.00
2022-10-01T18:32:12.283Z,97751.00
2022-10-01T18:34:56.988Z,97770.00
2022-10-01T18:41:08.958Z,97766.00
2022-10-01T18:43:47.543Z,97772.00
2022-10-01T18:46:46.682Z,97771.00
2022-10-01T18:49:51.294Z,97778.00
2022-10-01T18:56:11.006Z,97774.00
2022-10-01T18:59:45.730Z,97761.00
2022-10-01T19:03:02.022Z,97761.00
2022-10-01T19:06:28.301Z,97753.00
2022-10-01T19:09:12.425Z,97757.00
2022-10-01T19:12:23.209Z,97770.00
2022-10-01T19:15:22.263Z,97749.00
2022-10-01T19:18:17.633Z,97760.00
2022-10-01T19:21:10.532Z,97774.00
2022-10-01T19:24:15.427Z,97785.00
2022-10-01T19:26:58.691Z,97791.00
2022-10-01T19:29:42.962Z,97793.00
2022-10-01T19:32:31.322Z,97795.00
2022-10-01T19:38:30.904Z,97809.00
2022-10-01T19:41:17.087Z,97815.00
2022-10-01T19:44:14.231Z,97820.00
2022-10-01T19:46:59.855Z,97825.00
2022-10-01T19:50:00.098Z,97827.00
2022-10-01T19:52:54.993Z,97826.00
2022-10-01T19:55:46.009Z,97835.00
2022-10-01T19:58:29.963Z,97838.00
2022-10-01T20:01:01.263Z,97828.00
2022-10-01T20:04:11.276Z,97829.00
2022-10-01T20:07:46.819Z,97828.00
2022-10-01T20:10:43.850Z,97829.00
2022-10-01T20:13:50.858Z,97839.00
2022-10-01T20:17:13.212Z,97819.00
2022-10-01T20:20:06.797Z,97817.00
2022-10-01T20:23:32.990Z,97813.00
2022-10-01T20:26:41.576Z,97817.00
2022-10-01T20:30:02.963Z,97812.00
2022-10-01T20:33:01.296Z,97820.00
2022-10-01T20:36:25.556Z,97815.00
2022-10-01T20:39:44.577Z,97809.00
2022-10-01T20:42:50.097Z,97808.00
2022-10-01T20:45:44.378Z,97802.00
2022-10-01T20:49:00.270Z,97805.00
2022-10-01T20:51:56.110Z,97812.00
2022-10-01T20:58:17.864Z,97816.00
2022-10-01T21:01:07.303Z,97812.00
2022-10-01T21:04:07.706Z,97811.00
2022-10-01T21:07:32.459Z,97818.00
2022-10-01T21:10:26.180Z,97804.00
2022-10-01T21:20:02.571Z,97795.00
2022-10-01T21:23:10.861Z,97797.00
2022-10-01T21:26:35.006Z,97801.00
2022-10-01T21:29:42.392Z,97794.00
2022-10-01T21:33:02.307Z,97799.00
2022-10-01T21:36:08.075Z,97812.00
2022-10-01T21:39:05.944Z,97825.00
2022-10-01T21:42:03.420Z,97817.00
2022-10-01T21:45:26.528Z,97830.00
2022-10-01T21:48:42.245Z,97840.00
2022-10-01T21:52:09.055Z,97831.00
2022-10-01T21:55:39.450Z,97836.00
2022-10-01T21:58:49.536Z,97840.00
2022-10-01T22:01:53.367Z,97839.00
2022-10-01T22:05:11.577Z,97846.00
2022-10-01T22:08:05.780Z,97857.00
2022-10-01T22:10:57.895Z,97856.00
2022-10-01T22:13:59.765Z,97852.00
2022-10-01T22:24:31.687Z,97881.00
2022-10-01T22:27:47.964Z,97864.00
2022-10-01T22:30:45.758Z,97871.00
2022-10-01T22:33:36.264Z,97880.00
2022-10-01T22:36:55.422Z,97882.00
2022-10-01T22:39:48.792Z,97881.00
2022-10-01T22:42:37.286Z,97897.00
2022-10-01T22:45:41.881Z,97899.00
2022-10-01T22:48:37.742Z,97902.00
2022-10-01T22:51:18.274Z,97904.00
2022-10-01T22:54:06.016Z,97904.00
2022-10-01T22:56:42.057Z,97895.00
2022-10-01T22:59:17.346Z,97899.00
2022-10-01T23:01:50.068Z,97903.00
2022-10-01T23:04:36.536Z,97906.00
2022-10-01T23:07:17.756Z,97918.00
2022-10-01T23:09:54.357Z,97913.00
2022-10-01T23:12:30.915Z,97916.00
2022-10-01T23:15:15.256Z,97926.00
2022-10-01T23:17:48.590Z,97919.00
2022-10-01T23:20:24.432Z,97926.00
2022-10-01T23:23:07.156Z,97942.00
2022-10-01T23:25:46.859Z,97945.00
2022-10-01T23:28:25.837Z,97940.00
2022-10-01T23:31:03.777Z,97939.00
2022-10-01T23:33:52.519Z,97952.00
2022-10-01T23:36:38.980Z,97961.00
2022-10-01T23:39:44.688Z,97954.00
2022-10-01T23:42:27.194Z,97970.00
2022-10-01T23:45:06.041Z,97975.00
2022-10-01T23:47:39.465Z,97977.00
2022-10-01T23:50:13.389Z,97996.00
2022-10-01T23:52:48.808Z,98005.00
2022-10-01T23:55:34.816Z,98004.00
2022-10-01T23:58:08.310Z,98012.00
